createdAt,value
2023-02-14T00:00:04.956Z,49.71
2023-02-14T00:02:06.903Z,49.60
2023-02-14T00:04:11.921Z,49.57
2023-02-14T00:06:14.386Z,49.29
2023-02-14T00:08:17.306Z,49.36
2023-02-14T00:10:19.189Z,48.92
2023-02-14T00:12:20.925Z,48.91
2023-02-14T00:14:24.024Z,49.34
2023-02-14T00:16:25.876Z,49.64
2023-02-14T00:18:28.792Z,49.45
2023-02-14T00:20:31.612Z,49.52
2023-02-14T00:22:33.234Z,49.71
2023-02-14T00:24:37.233Z,49.15
2023-02-14T00:26:39.280Z,49.18
2023-02-14T00:28:40.946Z,49.36
2023-02-14T00:30:43.977Z,49.34
2023-02-14T00:32:45.595Z,49.01
2023-02-14T00:34:47.313Z,49.70
2023-02-14T00:36:49.173Z,49.23
2023-02-14T00:38:50.817Z,49.19
2023-02-14T00:40:52.484Z,48.88
2023-02-14T00:42:56.918Z,49.09
2023-02-14T00:44:58.565Z,49.42
2023-02-14T00:47:01.633Z,49.01
2023-02-14T00:49:04.125Z,49.24
2023-02-14T00:51:06.027Z,49.67
2023-02-14T00:53:07.729Z,50.09
2023-02-14T00:55:10.494Z,49.88
2023-02-14T00:57:12.119Z,49.91
2023-02-14T00:59:13.905Z,49.95
2023-02-14T01:01:16.994Z,49.94
2023-02-14T01:03:20.265Z,49.61
2023-02-14T01:05:21.996Z,49.93
2023-02-14T01:07:23.707Z,49.70
2023-02-14T01:09:25.506Z,49.63
2023-02-14T01:11:29.289Z,50.17
2023-02-14T01:13:31.690Z,49.94
2023-02-14T01:15:34.083Z,48.49
2023-02-14T01:17:35.693Z,48.54
2023-02-14T01:19:38.695Z,47.80
2023-02-14T01:21:41.638Z,47.53
2023-02-14T01:23:44.519Z,47.37
2023-02-14T01:25:46.268Z,46.54
2023-02-14T01:27:47.858Z,46.61
2023-02-14T01:29:49.611Z,46.52
2023-02-14T01:31:51.630Z,46.99
2023-02-14T01:33:54.379Z,47.34
2023-02-14T01:35:57.492Z,47.12
2023-02-14T01:37:59.427Z,47.18
2023-02-14T01:40:07.145Z,47.66
2023-02-14T01:42:10.718Z,47.79
2023-02-14T01:44:45.764Z,48.40
2023-02-14T01:46:47.544Z,49.08
2023-02-14T01:48:50.772Z,48.53
2023-02-14T01:50:53.943Z,48.55
2023-02-14T01:53:02.440Z,48.44
2023-02-14T01:55:12.155Z,48.30
2023-02-14T01:57:17.398Z,48.28
2023-02-14T01:59:25.253Z,48.64
2023-02-14T02:01:28.105Z,48.90
2023-02-14T02:03:34.100Z,48.69
2023-02-14T02:05:37.844Z,48.28
2023-02-14T02:07:39.962Z,48.30
2023-02-14T02:09:49.204Z,48.04
2023-02-14T02:11:51.264Z,48.58
2023-02-14T02:13:52.911Z,49.17
2023-02-14T02:16:11.148Z,49.02
2023-02-14T02:18:23.955Z,49.49
2023-02-14T02:20:59.248Z,48.84
2023-02-14T02:23:38.568Z,50.23
2023-02-14T02:26:07.102Z,49.55
2023-02-14T02:28:32.133Z,49.36
2023-02-14T02:31:03.925Z,49.09
2023-02-14T02:33:53.296Z,48.40
2023-02-14T02:36:13.103Z,48.94
2023-02-14T02:38:27.896Z,48.88
2023-02-14T02:40:44.654Z,48.75
2023-02-14T02:42:58.317Z,49.02
2023-02-14T02:45:10.696Z,49.66
2023-02-14T02:47:21.389Z,49.43
2023-02-14T02:49:37.039Z,49.32
2023-02-14T02:51:47.957Z,49.28
2023-02-14T02:53:52.410Z,49.67
2023-02-14T02:55:57.556Z,50.04
2023-02-14T02:58:00.013Z,50.52
2023-02-14T03:00:04.235Z,50.87
2023-02-14T03:02:12.683Z,50.38
2023-02-14T03:04:16.593Z,50.05
2023-02-14T03:06:18.178Z,50.52
2023-02-14T03:08:21.168Z,50.39
2023-02-14T03:10:24.837Z,50.08
2023-02-14T03:12:47.156Z,50.59
2023-02-14T03:14:56.061Z,50.26
2023-02-14T03:17:04.453Z,49.61
2023-02-14T03:19:40.011Z,49.53
2023-02-14T03:21:48.680Z,49.34
2023-02-14T03:23:56.525Z,49.45
2023-02-14T03:26:09.985Z,49.35
2023-02-14T03:28:17.549Z,49.42
2023-02-14T03:30:30.296Z,49.86
2023-02-14T03:32:38.749Z,49.73
2023-02-14T03:34:51.477Z,49.84
2023-02-14T03:36:58.537Z,49.70
2023-02-14T03:39:08.037Z,49.73
2023-02-14T03:41:14.078Z,49.68
2023-02-14T03:43:21.320Z,49.87
2023-02-14T03:45:30.333Z,49.96
2023-02-14T03:47:36.110Z,50.28
2023-02-14T03:49:43.587Z,50.22
2023-02-14T03:51:49.774Z,49.89
2023-02-14T03:54:04.801Z,50.37
2023-02-14T03:56:13.894Z,50.72
2023-02-14T03:58:21.487Z,50.98
2023-02-14T04:00:23.771Z,51.39
2023-02-14T04:02:31.042Z,50.98
2023-02-14T04:04:37.086Z,50.83
2023-02-14T04:06:39.085Z,50.25
2023-02-14T04:08:40.766Z,50.26
2023-02-14T04:10:43.710Z,50.31
2023-02-14T04:12:46.229Z,50.55
2023-02-14T04:14:55.354Z,50.12
2023-02-14T04:16:57.054Z,50.18
2023-02-14T04:18:58.654Z,50.09
2023-02-14T04:21:00.696Z,49.85
2023-02-14T04:23:04.328Z,49.45
2023-02-14T04:25:07.883Z,48.97
2023-02-14T04:27:11.390Z,49.60
2023-02-14T04:29:13.282Z,49.85
2023-02-14T04:31:18.034Z,49.67
2023-02-14T04:33:19.715Z,49.05
2023-02-14T04:35:21.658Z,48.88
2023-02-14T04:37:24.257Z,48.91
2023-02-14T04:39:26.316Z,48.93
2023-02-14T04:41:27.943Z,48.90
2023-02-14T04:43:31.116Z,49.10
2023-02-14T04:45:34.527Z,49.17
2023-02-14T04:47:36.193Z,49.59
2023-02-14T04:49:37.861Z,49.76
2023-02-14T04:51:41.781Z,49.84
2023-02-14T04:53:44.089Z,49.76
2023-02-14T04:55:45.765Z,49.92
2023-02-14T04:57:47.751Z,50.19
2023-02-14T04:59:50.806Z,49.67
2023-02-14T05:01:53.119Z,49.81
2023-02-14T05:03:54.822Z,49.65
2023-02-14T05:05:56.598Z,50.07
2023-02-14T05:07:58.235Z,50.06
2023-02-14T05:10:01.353Z,50.18
2023-02-14T05:12:11.105Z,50.59
2023-02-14T05:14:12.718Z,50.71
2023-02-14T05:16:15.757Z,50.41
2023-02-14T05:18:17.325Z,50.47
2023-02-14T05:20:19.057Z,50.62
2023-02-14T05:22:20.623Z,50.53
2023-02-14T05:24:22.308Z,50.30
2023-02-14T05:26:23.891Z,50.30
2023-02-14T05:28:25.577Z,51.01
2023-02-14T05:30:27.284Z,51.02
2023-02-14T05:32:30.196Z,50.59
2023-02-14T05:34:31.716Z,50.58
2023-02-14T05:36:33.462Z,50.63
2023-02-14T05:38:35.035Z,50.39
2023-02-14T05:40:36.581Z,50.38
2023-02-14T05:42:38.373Z,50.45
2023-02-14T05:44:39.940Z,50.88
2023-02-14T05:46:41.512Z,50.95
2023-02-14T05:48:44.578Z,51.01
2023-02-14T05:53:01.841Z,51.70
2023-02-14T05:55:04.337Z,51.36
2023-02-14T05:57:05.894Z,51.53
2023-02-14T05:59:07.457Z,51.57
2023-02-14T06:01:09.046Z,51.33
2023-02-14T06:03:10.664Z,51.32
2023-02-14T06:05:13.513Z,51.46
2023-02-14T06:07:15.125Z,51.21
2023-02-14T06:09:16.761Z,51.31
2023-02-14T06:11:18.344Z,51.46
2023-02-14T06:13:19.946Z,51.82
2023-02-14T06:15:22.244Z,51.49
2023-02-14T06:17:23.805Z,51.46
2023-02-14T06:19:25.385Z,51.08
2023-02-14T06:21:28.444Z,50.98
2023-02-14T06:23:30.052Z,51.13
2023-02-14T06:25:31.781Z,50.75
2023-02-14T06:27:33.473Z,50.35
2023-02-14T06:29:35.054Z,50.63
2023-02-14T06:31:36.998Z,50.60
2023-02-14T06:33:38.669Z,50.34
2023-02-14T06:35:40.185Z,49.80
2023-02-14T06:37:43.204Z,49.26
2023-02-14T06:39:44.778Z,49.47
2023-02-14T06:41:46.363Z,49.77
2023-02-14T06:43:48.196Z,50.04
2023-02-14T06:45:49.778Z,50.56
2023-02-14T06:47:51.408Z,50.74
2023-02-14T06:49:52.982Z,51.25
2023-02-14T06:51:54.545Z,51.06
2023-02-14T06:53:57.579Z,51.21
2023-02-14T06:55:59.200Z,51.61
2023-02-14T06:58:00.843Z,51.53
2023-02-14T07:00:03.037Z,51.58
2023-02-14T07:02:04.956Z,51.46
2023-02-14T07:04:06.485Z,51.70
2023-02-14T07:06:08.020Z,51.88
2023-02-14T07:08:09.701Z,51.92
2023-02-14T07:10:13.328Z,52.21
2023-02-14T07:12:14.916Z,52.65
2023-02-14T07:14:16.477Z,52.97
2023-02-14T07:16:18.104Z,52.88
2023-02-14T07:18:19.747Z,53.04
2023-02-14T07:20:21.538Z,52.96
2023-02-14T07:22:23.112Z,53.86
2023-02-14T07:24:24.777Z,54.10
2023-02-14T07:26:27.796Z,54.03
2023-02-14T07:28:32.512Z,54.35
2023-02-14T07:30:34.264Z,54.78
2023-02-14T07:32:37.165Z,54.85
2023-02-14T07:34:38.705Z,54.89
2023-02-14T07:36:40.341Z,54.97
2023-02-14T07:38:42.022Z,54.82
2023-02-14T07:40:43.726Z,54.86
2023-02-14T07:42:52.670Z,54.79
2023-02-14T07:44:54.359Z,54.70
2023-02-14T07:46:56.041Z,54.58
2023-02-14T07:48:57.557Z,54.70
2023-02-14T07:50:59.576Z,54.57
2023-02-14T07:53:01.433Z,54.14
2023-02-14T07:55:03.036Z,54.47
2023-02-14T07:57:05.480Z,54.11
2023-02-14T07:59:08.457Z,54.65
2023-02-14T08:01:09.953Z,54.95
2023-02-14T08:03:11.599Z,55.16
2023-02-14T08:05:16.335Z,54.70
2023-02-14T08:07:18.107Z,54.55
2023-02-14T08:09:20.715Z,54.58
2023-02-14T08:11:22.290Z,54.53
2023-02-14T08:13:23.864Z,54.71
2023-02-14T08:15:27.850Z,54.72
2023-02-14T08:17:29.400Z,54.61
2023-02-14T08:19:30.922Z,54.63
2023-02-14T08:21:32.640Z,54.41
2023-02-14T08:23:35.129Z,54.19
2023-02-14T08:25:36.698Z,53.91
2023-02-14T08:27:38.324Z,53.81
2023-02-14T08:29:39.876Z,53.87
2023-02-14T08:31:42.965Z,53.44
2023-02-14T08:33:44.614Z,53.99
2023-02-14T08:35:46.298Z,54.21
2023-02-14T08:37:48.076Z,53.96
2023-02-14T08:39:50.020Z,54.89
2023-02-14T08:41:51.581Z,54.89
2023-02-14T08:43:53.220Z,55.70
2023-02-14T08:45:55.255Z,55.98
2023-02-14T08:48:02.691Z,56.21
2023-02-14T08:50:05.757Z,56.16
2023-02-14T08:52:07.323Z,56.25
2023-02-14T08:54:08.873Z,55.42
2023-02-14T08:56:11.990Z,55.49
2023-02-14T08:58:13.632Z,55.52
2023-02-14T09:00:15.941Z,55.96
2023-02-14T09:02:17.502Z,55.47
2023-02-14T09:04:20.441Z,55.64
2023-02-14T09:06:22.099Z,55.96
2023-02-14T09:08:23.684Z,55.72
2023-02-14T09:10:25.703Z,55.90
2023-02-14T09:12:27.363Z,56.26
2023-02-14T09:14:31.173Z,56.53
2023-02-14T09:16:33.782Z,55.59
2023-02-14T09:18:37.835Z,55.02
2023-02-14T09:20:40.723Z,55.07
2023-02-14T09:22:42.369Z,55.07
2023-02-14T09:24:44.670Z,54.90
2023-02-14T09:26:46.185Z,55.54
2023-02-14T09:28:48.177Z,55.19
2023-02-14T09:30:49.835Z,54.83
2023-02-14T09:32:52.583Z,54.25
2023-02-14T09:34:54.227Z,53.82
2023-02-14T09:36:59.929Z,53.80
2023-02-14T09:39:01.720Z,53.73
2023-02-14T09:41:05.840Z,53.33
2023-02-14T09:43:11.635Z,53.16
2023-02-14T09:45:16.660Z,53.52
2023-02-14T09:47:23.052Z,53.95
2023-02-14T09:49:31.632Z,53.92
2023-02-14T09:51:33.405Z,53.52
2023-02-14T09:53:43.667Z,53.14
2023-02-14T09:55:53.957Z,52.60
2023-02-14T09:58:04.792Z,53.52
2023-02-14T10:00:17.451Z,53.11
2023-02-14T10:02:33.639Z,52.83
2023-02-14T10:04:40.508Z,53.11
2023-02-14T10:06:50.399Z,53.27
2023-02-14T10:09:02.845Z,53.06
2023-02-14T10:11:15.375Z,52.88
2023-02-14T10:13:22.469Z,53.28
2023-02-14T10:15:27.478Z,52.89
2023-02-14T10:17:38.260Z,52.92
2023-02-14T10:19:43.694Z,53.31
2023-02-14T10:21:52.170Z,52.96
2023-02-14T10:24:00.210Z,52.93
2023-02-14T10:26:04.154Z,53.03
2023-02-14T10:28:11.292Z,53.10
2023-02-14T10:30:16.871Z,52.99
2023-02-14T10:32:25.204Z,52.94
2023-02-14T10:34:35.076Z,52.86
2023-02-14T10:36:51.221Z,52.74
2023-02-14T10:39:01.405Z,52.46
2023-02-14T10:41:18.974Z,52.51
2023-02-14T10:43:27.903Z,52.60
2023-02-14T10:45:38.954Z,52.54
2023-02-14T10:47:47.302Z,52.23
2023-02-14T10:49:57.896Z,52.04
2023-02-14T10:52:08.301Z,52.17
2023-02-14T10:54:19.205Z,52.33
2023-02-14T10:56:26.110Z,52.45
2023-02-14T10:58:32.186Z,52.33
2023-02-14T11:00:37.821Z,52.51
2023-02-14T11:02:43.304Z,52.40
2023-02-14T11:04:46.364Z,52.77
2023-02-14T11:06:48.147Z,52.75
2023-02-14T11:08:59.152Z,52.73
2023-02-14T11:11:10.944Z,52.57
2023-02-14T11:13:34.916Z,52.32
2023-02-14T11:15:39.740Z,51.92
2023-02-14T11:17:41.849Z,52.10
2023-02-14T11:19:57.143Z,52.27
2023-02-14T11:22:00.066Z,52.31
2023-02-14T11:24:16.730Z,52.70
2023-02-14T11:26:29.902Z,52.82
2023-02-14T11:28:32.186Z,52.54
2023-02-14T11:30:36.660Z,52.77
2023-02-14T11:32:38.848Z,53.16
2023-02-14T11:34:44.418Z,52.94
2023-02-14T11:36:46.009Z,52.83
2023-02-14T11:38:55.917Z,52.00
2023-02-14T11:40:59.433Z,52.51
2023-02-14T11:43:19.187Z,52.40
2023-02-14T11:45:33.339Z,52.59
2023-02-14T11:47:36.285Z,52.70
2023-02-14T11:49:37.965Z,52.19
2023-02-14T11:51:43.930Z,52.28
2023-02-14T11:53:48.379Z,52.68
2023-02-14T11:55:53.851Z,52.44
2023-02-14T11:57:56.428Z,52.24
2023-02-14T12:00:01.845Z,52.27
2023-02-14T12:02:24.444Z,52.22
2023-02-14T12:04:38.115Z,52.08
2023-02-14T12:06:46.498Z,51.91
2023-02-14T12:08:48.291Z,52.56
2023-02-14T12:11:01.966Z,52.13
2023-02-14T12:13:22.998Z,52.22
2023-02-14T12:15:32.355Z,51.91
2023-02-14T12:17:37.350Z,52.18
2023-02-14T12:19:48.957Z,51.81
2023-02-14T12:21:57.911Z,52.06
2023-02-14T12:24:05.932Z,52.01
2023-02-14T12:26:15.280Z,51.99
2023-02-14T12:28:24.814Z,51.88
2023-02-14T12:30:33.157Z,52.29
2023-02-14T12:32:35.498Z,52.09
2023-02-14T12:34:37.386Z,52.56
2023-02-14T12:36:51.564Z,52.45
2023-02-14T12:39:02.458Z,52.12
2023-02-14T12:41:19.494Z,52.16
2023-02-14T12:43:41.122Z,52.14
2023-02-14T12:46:09.614Z,51.96
2023-02-14T12:48:20.420Z,52.51
2023-02-14T12:50:35.149Z,52.22
2023-02-14T12:53:01.185Z,52.18
2023-02-14T12:55:25.786Z,52.51
2023-02-14T12:57:39.340Z,51.85
2023-02-14T12:59:52.063Z,51.95
2023-02-14T13:02:36.985Z,51.83
2023-02-14T13:04:59.503Z,52.72
2023-02-14T13:07:07.826Z,52.31
2023-02-14T13:09:27.665Z,52.15
2023-02-14T13:11:39.588Z,52.39
2023-02-14T13:13:54.288Z,52.47
2023-02-14T13:16:05.012Z,52.29
2023-02-14T13:18:15.008Z,52.78
2023-02-14T13:20:36.800Z,52.32
2023-02-14T13:22:40.567Z,52.10
2023-02-14T13:24:44.532Z,52.95
2023-02-14T13:26:49.842Z,52.74
2023-02-14T13:28:56.083Z,52.81
2023-02-14T13:31:00.038Z,52.63
2023-02-14T13:33:27.508Z,52.63
2023-02-14T13:35:30.316Z,52.34
2023-02-14T13:37:32.887Z,52.06
2023-02-14T13:39:38.656Z,52.01
2023-02-14T13:41:41.250Z,52.52
2023-02-14T13:43:52.043Z,52.02
2023-02-14T13:45:54.682Z,52.16
2023-02-14T13:48:03.376Z,51.78
2023-02-14T13:50:21.511Z,51.59
2023-02-14T13:52:42.948Z,51.46
2023-02-14T13:54:47.823Z,51.45
2023-02-14T13:56:49.715Z,51.66
2023-02-14T13:58:54.018Z,51.83
2023-02-14T14:00:56.571Z,51.97
2023-02-14T14:02:58.314Z,52.35
2023-02-14T14:05:00.000Z,52.42
2023-02-14T14:07:23.984Z,52.47
2023-02-14T14:09:53.318Z,52.27
2023-02-14T14:11:54.956Z,52.12
2023-02-14T14:14:01.807Z,52.43
2023-02-14T14:16:28.549Z,52.30
2023-02-14T14:18:38.141Z,51.84
2023-02-14T14:20:44.416Z,52.48
2023-02-14T14:22:49.298Z,52.62
2023-02-14T14:25:02.291Z,52.70
2023-02-14T14:27:07.221Z,52.36
2023-02-14T14:29:18.137Z,52.55
2023-02-14T14:31:20.328Z,52.56
2023-02-14T14:33:28.687Z,52.48
2023-02-14T14:35:30.211Z,52.94
2023-02-14T14:37:34.078Z,52.78
2023-02-14T14:39:37.208Z,52.65
2023-02-14T14:41:40.401Z,52.82
2023-02-14T14:43:42.372Z,52.66
2023-02-14T14:45:46.949Z,52.52
2023-02-14T14:47:52.907Z,52.10
2023-02-14T14:50:00.274Z,52.51
2023-02-14T14:52:02.035Z,52.49
2023-02-14T14:54:13.145Z,52.40
2023-02-14T14:56:21.924Z,53.05
2023-02-14T14:58:33.237Z,52.40
2023-02-14T15:00:37.147Z,52.70
2023-02-14T15:02:38.908Z,52.90
2023-02-14T15:04:40.637Z,52.60
2023-02-14T15:06:42.452Z,52.84
2023-02-14T15:08:44.550Z,53.15
2023-02-14T15:10:50.564Z,53.57
2023-02-14T15:12:57.237Z,54.51
2023-02-14T15:14:58.878Z,54.91
2023-02-14T15:17:03.313Z,54.17
2023-02-14T15:19:09.082Z,53.68
2023-02-14T15:21:10.828Z,53.66
2023-02-14T15:23:18.426Z,53.44
2023-02-14T15:25:22.522Z,53.65
2023-02-14T15:27:26.319Z,53.41
2023-02-14T15:29:32.104Z,53.95
2023-02-14T15:31:37.030Z,53.83
2023-02-14T15:33:39.083Z,53.96
2023-02-14T15:35:41.980Z,53.84
2023-02-14T15:37:44.435Z,53.56
2023-02-14T15:39:49.522Z,53.72
2023-02-14T15:41:53.680Z,53.57
2023-02-14T15:43:56.541Z,55.46
2023-02-14T15:46:13.528Z,55.72
2023-02-14T15:48:18.665Z,56.04
2023-02-14T15:50:23.452Z,55.71
2023-02-14T15:52:25.377Z,55.06
2023-02-14T15:54:36.698Z,55.22
2023-02-14T15:56:44.279Z,54.37
2023-02-14T15:58:46.617Z,54.42
2023-02-14T16:00:50.082Z,54.23
2023-02-14T16:02:56.403Z,54.29
2023-02-14T16:05:04.678Z,54.33
2023-02-14T16:07:24.764Z,54.36
2023-02-14T16:09:28.628Z,54.25
2023-02-14T16:11:32.137Z,54.10
2023-02-14T16:13:38.440Z,54.14
2023-02-14T16:15:55.754Z,54.67
2023-02-14T16:17:59.844Z,55.59
2023-02-14T16:20:20.556Z,55.99
2023-02-14T16:22:26.032Z,56.15
2023-02-14T16:24:27.674Z,56.08
2023-02-14T16:26:30.850Z,56.81
2023-02-14T16:28:33.382Z,57.56
2023-02-14T16:30:35.400Z,57.94
2023-02-14T16:32:37.110Z,58.11
2023-02-14T16:34:40.581Z,57.91
2023-02-14T16:36:43.426Z,58.02
2023-02-14T16:38:46.134Z,58.25
2023-02-14T16:40:49.808Z,58.49
2023-02-14T16:42:51.415Z,58.86
2023-02-14T16:44:53.435Z,59.00
2023-02-14T16:46:55.010Z,59.30
2023-02-14T16:48:56.799Z,59.04
2023-02-14T16:51:00.155Z,58.48
2023-02-14T16:53:02.113Z,58.30
2023-02-14T16:55:04.960Z,58.09
2023-02-14T16:57:07.333Z,58.12
2023-02-14T16:59:09.103Z,57.72
2023-02-14T17:01:10.857Z,57.34
2023-02-14T17:03:12.632Z,57.14
2023-02-14T17:05:14.397Z,56.52
2023-02-14T17:07:17.392Z,56.94
2023-02-14T17:09:22.799Z,56.53
2023-02-14T17:11:26.842Z,57.05
2023-02-14T17:13:31.528Z,57.18
2023-02-14T17:15:34.071Z,56.76
2023-02-14T17:17:37.303Z,57.03
2023-02-14T17:19:39.289Z,57.29
2023-02-14T17:21:41.297Z,58.08
2023-02-14T17:23:44.315Z,58.67
2023-02-14T17:28:01.465Z,58.69
2023-02-14T17:30:03.634Z,58.38
2023-02-14T17:32:05.609Z,58.65
2023-02-14T17:34:07.417Z,58.94
2023-02-14T17:36:12.021Z,58.47
2023-02-14T17:38:13.748Z,58.23
2023-02-14T17:40:18.466Z,57.94
2023-02-14T17:42:20.068Z,57.57
2023-02-14T17:44:21.653Z,57.08
2023-02-14T17:46:23.457Z,56.79
2023-02-14T17:48:25.080Z,56.71
2023-02-14T17:50:26.699Z,56.91
2023-02-14T17:52:28.383Z,56.56
2023-02-14T17:54:29.992Z,56.64
2023-02-14T17:56:32.952Z,56.54
2023-02-14T17:58:35.004Z,56.32
2023-02-14T18:00:36.576Z,56.01
2023-02-14T18:02:41.104Z,56.09
2023-02-14T18:04:43.114Z,56.04
2023-02-14T18:06:44.986Z,56.13
2023-02-14T18:08:48.362Z,56.28
2023-02-14T18:10:50.317Z,56.20
2023-02-14T18:12:53.279Z,55.99
2023-02-14T18:14:54.951Z,56.13
2023-02-14T18:16:56.642Z,56.70
2023-02-14T18:19:01.817Z,56.83
2023-02-14T18:21:05.525Z,56.86
2023-02-14T18:23:07.078Z,57.64
2023-02-14T18:25:09.098Z,57.83
2023-02-14T18:27:10.675Z,57.97
2023-02-14T18:29:14.051Z,58.52
2023-02-14T18:31:17.554Z,59.27
2023-02-14T18:33:19.929Z,59.64
2023-02-14T18:35:21.472Z,59.95
2023-02-14T18:37:22.986Z,59.98
2023-02-14T18:39:24.636Z,60.24
2023-02-14T18:41:26.931Z,59.80
2023-02-14T18:43:28.602Z,59.80
2023-02-14T18:45:35.512Z,60.25
2023-02-14T18:47:37.119Z,60.77
2023-02-14T18:49:38.838Z,60.72
2023-02-14T18:51:41.761Z,60.88
2023-02-14T18:53:44.760Z,60.75
2023-02-14T18:55:46.392Z,60.51
2023-02-14T18:57:48.049Z,60.72
2023-02-14T18:59:49.854Z,60.65
2023-02-14T19:01:52.988Z,61.16
2023-02-14T19:03:55.549Z,61.93
2023-02-14T19:05:59.305Z,62.36
2023-02-14T19:08:01.278Z,61.92
2023-02-14T19:10:03.544Z,61.28
2023-02-14T19:12:07.255Z,60.90
2023-02-14T19:14:10.324Z,60.51
2023-02-14T19:16:14.032Z,60.95
2023-02-14T19:18:17.934Z,60.51
2023-02-14T19:20:19.769Z,60.57
2023-02-14T19:22:21.600Z,60.59
2023-02-14T19:24:23.296Z,60.29
2023-02-14T19:26:28.178Z,59.84
2023-02-14T19:28:30.111Z,59.68
2023-02-14T19:30:32.704Z,59.44
2023-02-14T19:32:34.333Z,59.46
2023-02-14T19:34:37.630Z,58.98
2023-02-14T19:36:40.281Z,58.87
2023-02-14T19:38:46.599Z,58.54
2023-02-14T19:40:50.502Z,58.32
2023-02-14T19:42:52.459Z,58.21
2023-02-14T19:44:54.147Z,58.28
2023-02-14T19:46:58.148Z,58.03
2023-02-14T19:49:00.992Z,57.79
2023-02-14T19:51:05.607Z,58.05
2023-02-14T19:53:07.126Z,57.93
2023-02-14T19:55:19.972Z,57.71
2023-02-14T19:57:21.907Z,57.63
2023-02-14T19:59:23.608Z,57.82
2023-02-14T20:01:29.236Z,57.77
2023-02-14T20:03:31.011Z,57.86
2023-02-14T20:05:32.593Z,58.28
2023-02-14T20:07:35.534Z,57.74
2023-02-14T20:09:37.167Z,57.62
2023-02-14T20:11:40.920Z,57.69
2023-02-14T20:13:42.559Z,57.76
2023-02-14T20:15:47.116Z,57.51
2023-02-14T20:17:48.674Z,57.65
2023-02-14T20:19:50.272Z,57.69
2023-02-14T20:21:51.992Z,57.54
2023-02-14T20:23:56.941Z,57.69
2023-02-14T20:25:58.895Z,57.68
2023-02-14T20:28:00.478Z,57.51
2023-02-14T20:30:02.070Z,57.55
2023-02-14T20:32:04.050Z,58.04
2023-02-14T20:34:05.766Z,57.81
2023-02-14T20:36:08.640Z,57.76
2023-02-14T20:38:10.292Z,57.69
2023-02-14T20:40:13.551Z,57.81
2023-02-14T20:42:15.182Z,57.69
2023-02-14T20:44:18.997Z,57.96
2023-02-14T20:46:21.587Z,57.63
2023-02-14T20:48:23.488Z,57.79
2023-02-14T20:50:25.114Z,57.71
2023-02-14T20:52:26.768Z,57.98
2023-02-14T20:54:29.478Z,57.68
2023-02-14T20:56:32.451Z,57.94
2023-02-14T20:58:35.416Z,58.16
2023-02-14T21:00:37.111Z,58.15
2023-02-14T21:02:38.770Z,58.17
2023-02-14T21:04:40.703Z,57.95
2023-02-14T21:06:42.295Z,58.71
2023-02-14T21:08:45.081Z,59.57
2023-02-14T21:10:46.742Z,59.91
2023-02-14T21:12:49.832Z,59.66
2023-02-14T21:14:51.505Z,59.27
2023-02-14T21:16:53.106Z,59.58
2023-02-14T21:18:56.831Z,59.72
2023-02-14T21:21:03.781Z,60.51
2023-02-14T21:23:05.353Z,61.75
2023-02-14T21:25:07.460Z,62.03
2023-02-14T21:27:09.049Z,62.01
2023-02-14T21:29:12.106Z,62.58
2023-02-14T21:31:15.678Z,62.65
2023-02-14T21:33:17.339Z,62.70
2023-02-14T21:35:18.852Z,62.56
2023-02-14T21:37:20.477Z,62.32
2023-02-14T21:39:22.431Z,61.65
2023-02-14T21:41:25.957Z,61.53
2023-02-14T21:43:27.579Z,61.46
2023-02-14T21:45:30.775Z,61.86
2023-02-14T21:47:36.574Z,61.52
2023-02-14T21:49:38.250Z,60.93
2023-02-14T21:51:40.630Z,60.74
2023-02-14T21:53:42.709Z,60.42
2023-02-14T21:55:44.436Z,59.96
2023-02-14T21:57:46.100Z,59.92
2023-02-14T21:59:47.727Z,59.94
2023-02-14T22:01:50.665Z,59.99
2023-02-14T22:03:53.046Z,60.05
2023-02-14T22:06:01.236Z,60.08
2023-02-14T22:08:03.016Z,59.86
2023-02-14T22:10:05.788Z,60.15
2023-02-14T22:12:07.577Z,60.27
2023-02-14T22:14:09.153Z,61.25
2023-02-14T22:16:14.192Z,61.20
2023-02-14T22:18:17.670Z,62.45
2023-02-14T22:20:19.641Z,63.12
2023-02-14T22:22:21.255Z,62.82
2023-02-14T22:24:22.806Z,62.24
2023-02-14T22:26:26.682Z,63.08
2023-02-14T22:28:28.312Z,62.33
2023-02-14T22:30:29.806Z,62.15
2023-02-14T22:32:31.405Z,61.95
2023-02-14T22:34:34.649Z,62.34
2023-02-14T22:36:36.366Z,62.37
2023-02-14T22:38:38.837Z,62.06
2023-02-14T22:40:40.391Z,61.83
2023-02-14T22:42:42.007Z,61.98
2023-02-14T22:44:43.615Z,61.63
2023-02-14T22:46:45.197Z,62.07
2023-02-14T22:48:47.644Z,62.18
2023-02-14T22:50:50.501Z,62.20
2023-02-14T22:52:52.063Z,61.73
2023-02-14T22:54:53.615Z,62.27
2023-02-14T22:56:55.194Z,62.21
2023-02-14T22:58:58.839Z,62.14
2023-02-14T23:01:00.476Z,62.35
2023-02-14T23:03:02.080Z,62.09
2023-02-14T23:05:03.833Z,61.65
2023-02-14T23:07:06.886Z,62.06
2023-02-14T23:09:10.560Z,61.22
2023-02-14T23:11:14.609Z,61.06
2023-02-14T23:13:16.146Z,60.84
2023-02-14T23:15:17.884Z,60.35
2023-02-14T23:17:19.479Z,60.58
2023-02-14T23:19:23.832Z,62.06
2023-02-14T23:21:25.408Z,61.90
2023-02-14T23:23:34.588Z,61.78
2023-02-14T23:25:36.317Z,61.53
2023-02-14T23:27:39.364Z,61.49
2023-02-14T23:29:40.988Z,61.53
2023-02-14T23:31:42.755Z,61.65
2023-02-14T23:33:44.388Z,62.58
2023-02-14T23:35:45.996Z,62.19
2023-02-14T23:37:47.548Z,61.91
2023-02-14T23:39:50.623Z,61.44
2023-02-14T23:41:52.624Z,61.17
2023-02-14T23:43:54.185Z,61.26
2023-02-14T23:45:55.789Z,60.99
2023-02-14T23:48:01.737Z,61.25
2023-02-14T23:50:03.306Z,61.07
2023-02-14T23:52:06.482Z,61.06
2023-02-14T23:54:08.594Z,61.05
2023-02-14T23:56:11.497Z,61.26
2023-02-14T23:58:13.008Z,60.67
